Time;durP1;ratioP1;P1;durP2;ratioP2;P2;SDS_P1;SDS_P2;PMS_P1;PMS_P2;Temp;Humidity;BMP_temperature;BMP_pressure;BME280_temperature;BME280_humidity;BME280_pressure;Samples;Min_cycle;Max_cycle;Signal;HPM_P1;HPM_P2
2020/12/17 00:01:26;;;;;;;13.82;11.15;;;19.60;30.20;;;;;;5076041;28;20162;-52
2020/12/17 00:03:52;;;;;;;12.03;10.60;;;19.60;30.90;;;;;;5075843;28;20197;-52
2020/12/17 00:06:20;;;;;;;11.27;10.17;;;19.60;30.00;;;;;;5076063;28;20613;-53
2020/12/17 00:08:46;;;;;;;11.07;10.00;;;19.60;29.40;;;;;;5075055;28;20197;-52
2020/12/17 00:11:11;;;;;;;11.70;10.50;;;19.60;29.40;;;;;;5075696;28;20234;-53
2020/12/17 00:13:37;;;;;;;11.93;10.27;;;19.60;29.50;;;;;;5075651;28;20165;-53
2020/12/17 00:16:03;;;;;;;11.80;10.37;;;19.60;29.40;;;;;;5075411;28;20234;-52
2020/12/17 00:18:29;;;;;;;11.23;10.05;;;19.60;29.20;;;;;;5075859;28;20166;-52
2020/12/17 00:20:55;;;;;;;10.90;9.83;;;19.60;29.00;;;;;;5075510;28;20192;-52
2020/12/17 00:23:20;;;;;;;13.20;10.20;;;19.60;29.30;;;;;;5075018;28;20161;-52
2020/12/17 00:25:46;;;;;;;12.47;11.17;;;19.60;29.30;;;;;;5075524;28;20163;-53
2020/12/17 00:28:12;;;;;;;11.50;10.40;;;19.60;30.00;;;;;;5075404;28;20163;-53
2020/12/17 00:30:37;;;;;;;10.73;9.70;;;19.60;32.00;;;;;;5075440;28;20154;-53
2020/12/17 00:33:03;;;;;;;11.20;9.37;;;19.60;31.60;;;;;;5091193;28;20193;-53
2020/12/17 00:35:29;;;;;;;11.17;10.03;;;19.60;28.70;;;;;;5057468;28;20185;-53
2020/12/17 00:37:54;;;;;;;11.13;10.07;;;19.60;28.70;;;;;;5074749;28;20169;-53
2020/12/17 00:40:20;;;;;;;11.10;10.10;;;19.60;28.80;;;;;;5075435;28;20174;-53
2020/12/17 00:42:46;;;;;;;13.40;11.23;;;19.60;29.10;;;;;;5057333;28;20170;-52
2020/12/17 00:45:14;;;;;;;11.85;9.85;;;19.60;29.10;;;;;;5075496;28;20169;-52
2020/12/17 00:47:39;;;;;;;12.82;11.30;;;19.60;29.00;;;;;;5075064;28;20633;-53
2020/12/17 00:50:09;;;;;;;11.30;10.00;;;19.60;29.60;;;;;;5075157;28;20269;-53
2020/12/17 00:52:39;;;;;;;11.02;9.90;;;19.60;31.00;;;;;;5074446;28;20220;-53
2020/12/17 00:55:06;;;;;;;12.23;10.35;;;19.60;30.90;;;;;;5074992;28;20233;-53
2020/12/17 00:57:32;;;;;;;13.73;11.10;;;19.60;30.80;;;;;;5073035;28;20218;-53
2020/12/17 00:59:58;;;;;;;11.20;9.53;;;19.60;31.20;;;;;;5056916;28;20166;-53
2020/12/17 01:02:23;;;;;;;11.67;10.47;;;19.60;31.60;;;;;;5074878;28;20162;-52
2020/12/17 01:04:49;;;;;;;11.13;10.03;;;19.60;32.30;;;;;;5074960;28;20200;-53
2020/12/17 01:07:16;;;;;;;13.00;11.70;;;19.60;30.20;;;;;;5073741;28;20644;-52
2020/12/17 01:09:42;;;;;;;11.45;10.15;;;19.60;30.10;;;;;;5074773;28;20182;-52
2020/12/17 01:12:08;;;;;;;11.90;10.27;;;19.60;29.40;;;;;;5074553;28;20510;-53
2020/12/17 01:14:35;;;;;;;11.32;10.00;;;19.60;29.70;;;;;;5074742;28;20446;-52
2020/12/17 01:17:02;;;;;;;11.57;9.68;;;19.60;30.00;;;;;;5056425;28;20699;-52
2020/12/17 01:19:31;;;;;;;12.00;10.32;;;19.60;30.40;;;;;;5074731;28;20162;-53
2020/12/17 01:21:57;;;;;;;10.88;9.75;;;19.90;30.00;;;;;;5073837;28;20155;-52
2020/12/17 01:24:23;;;;;;;10.30;9.30;;;19.60;29.00;;;;;;5074374;28;20465;-52
2020/12/17 01:26:55;;;;;;;13.57;10.10;;;19.60;28.70;;;;;;5056396;28;20174;-53
2020/12/17 01:29:22;;;;;;;11.38;10.15;;;19.60;28.70;;;;;;5074600;28;20269;-52
2020/12/17 01:31:48;;;;;;;10.35;9.20;;;19.60;28.80;;;;;;5056408;28;20263;-52
2020/12/17 01:34:14;;;;;;;10.53;9.40;;;19.50;28.80;;;;;;5056314;28;20271;-52
2020/12/17 01:36:40;;;;;;;10.32;9.32;;;19.50;28.70;;;;;;5073987;28;20386;-52
2020/12/17 01:39:05;;;;;;;11.03;9.87;;;19.50;28.70;;;;;;5073823;28;20163;-52
2020/12/17 01:41:31;;;;;;;10.20;9.00;;;19.50;29.20;;;;;;5056136;28;21003;-52
2020/12/17 01:44:01;;;;;;;10.87;9.77;;;19.60;28.80;;;;;;5056192;28;20625;-52
2020/12/17 01:46:27;;;;;;;12.02;10.80;;;19.50;30.90;;;;;;5074130;28;20192;-52
2020/12/17 01:48:53;;;;;;;11.25;10.10;;;19.50;30.30;;;;;;5073670;28;20206;-52
2020/12/17 01:51:19;;;;;;;12.53;10.83;;;19.50;30.20;;;;;;5073931;28;20203;-53
2020/12/17 01:53:44;;;;;;;9.23;8.27;;;19.50;33.90;;;;;;5055410;28;20417;-52
2020/12/17 01:56:16;;;;;;;10.13;9.20;;;19.50;30.80;;;;;;5073835;28;20747;-52
2020/12/17 01:58:48;;;;;;;12.10;10.80;;;19.50;28.80;;;;;;5055813;28;20181;-52
2020/12/17 02:01:25;;;;;;;10.77;9.70;;;19.50;28.70;;;;;;5073702;28;20155;-52
2020/12/17 02:03:53;;;;;;;10.95;9.95;;;19.50;28.70;;;;;;5073602;28;20159;-52
2020/12/17 02:06:19;;;;;;;11.82;10.52;;;19.50;28.70;;;;;;5073584;28;20165;-52
2020/12/17 02:08:44;;;;;;;11.63;9.10;;;19.50;28.70;;;;;;5073157;28;20186;-52
2020/12/17 02:11:10;;;;;;;10.83;9.73;;;19.50;32.50;;;;;;5073623;28;20181;-52
2020/12/17 02:13:37;;;;;;;10.50;9.40;;;19.50;28.90;;;;;;5073580;28;20163;-52
2020/12/17 02:16:07;;;;;;;10.25;8.48;;;19.50;30.00;;;;;;5073548;28;20210;-52
2020/12/17 02:18:33;;;;;;;11.35;10.15;;;19.50;28.80;;;;;;5073446;28;20158;-52
2020/12/17 02:21:01;;;;;;;10.07;8.88;;;19.50;29.00;;;;;;5073157;28;20155;-52
2020/12/17 02:23:27;;;;;;;9.73;8.73;;;19.50;29.30;;;;;;5055130;28;20167;-52
2020/12/17 02:25:53;;;;;;;11.02;9.30;;;19.50;29.20;;;;;;5073479;28;20158;-51
2020/12/17 02:28:20;;;;;;;13.00;11.63;;;19.50;28.80;;;;;;5073435;28;20165;-52
2020/12/17 02:30:47;;;;;;;10.68;9.68;;;19.50;28.90;;;;;;5073492;28;20151;-51
2020/12/17 02:33:12;;;;;;;11.52;10.48;;;19.50;28.80;;;;;;5073344;28;20324;-51
2020/12/17 02:35:39;;;;;;;11.33;9.00;;;19.50;28.80;;;;;;5055851;28;20186;-52
2020/12/17 02:38:05;;;;;;;10.88;9.82;;;19.50;28.80;;;;;;5073067;28;20147;-52
2020/12/17 02:40:32;;;;;;;10.18;9.23;;;19.50;28.80;;;;;;5073427;28;20598;-52
2020/12/17 02:42:58;;;;;;;9.77;8.85;;;19.50;28.80;;;;;;5055559;28;20208;-52
2020/12/17 02:45:24;;;;;;;10.93;9.47;;;19.50;29.30;;;;;;5073442;28;20155;-52
2020/12/17 02:47:49;;;;;;;11.07;9.97;;;19.50;28.80;;;;;;5073160;28;20212;-53
2020/12/17 02:50:15;;;;;;;10.87;9.80;;;19.50;30.40;;;;;;5073295;28;20234;-52
2020/12/17 02:52:41;;;;;;;10.37;9.37;;;19.50;31.70;;;;;;5073005;28;20480;-52
2020/12/17 02:55:08;;;;;;;8.93;8.02;;;19.50;33.00;;;;;;5088810;28;20507;-53
2020/12/17 02:57:34;;;;;;;11.57;9.93;;;19.40;34.30;;;;;;5073020;28;20269;-53
2020/12/17 03:00:00;;;;;;;9.93;8.90;;;19.40;34.00;;;;;;5073321;28;20182;-53
2020/12/17 03:02:26;;;;;;;10.32;9.32;;;19.40;34.00;;;;;;5073068;28;20166;-53
2020/12/17 03:04:52;;;;;;;10.07;9.07;;;19.40;34.50;;;;;;5073265;28;20155;-52
2020/12/17 03:07:20;;;;;;;10.63;9.47;;;19.40;34.70;;;;;;5072706;28;20201;-52
2020/12/17 03:09:46;;;;;;;9.85;8.88;;;19.40;35.00;;;;;;5073058;28;20336;-52
2020/12/17 03:12:12;;;;;;;10.97;9.67;;;19.40;34.60;;;;;;5073147;28;20645;-53
2020/12/17 03:14:37;;;;;;;11.50;10.40;;;19.40;34.90;;;;;;5073149;28;20178;-53
2020/12/17 03:17:03;;;;;;;9.23;8.33;;;19.40;36.70;;;;;;5072701;28;20687;-53
2020/12/17 03:19:28;;;;;;;10.57;8.90;;;19.40;50.00;;;;;;5073075;28;20155;-53
2020/12/17 03:21:54;;;;;;;9.90;9.00;;;19.50;35.70;;;;;;5072594;28;20533;-53
2020/12/17 03:24:23;;;;;;;10.53;9.50;;;19.40;30.10;;;;;;5055391;28;20159;-53
2020/12/17 03:26:48;;;;;;;9.23;8.43;;;19.40;28.80;;;;;;5055190;28;20170;-53
2020/12/17 03:29:14;;;;;;;10.70;9.60;;;19.40;28.80;;;;;;5071872;28;20187;-53
2020/12/17 03:31:39;;;;;;;9.70;8.70;;;19.40;28.70;;;;;;5074999;28;20614;-53
2020/12/17 03:34:05;;;;;;;10.13;9.07;;;19.40;28.70;;;;;;5076409;28;20191;-53
2020/12/17 03:36:31;;;;;;;9.90;8.87;;;19.40;28.70;;;;;;5076522;28;20166;-53
2020/12/17 03:38:56;;;;;;;9.57;8.67;;;19.40;28.70;;;;;;5076272;28;20518;-53
2020/12/17 03:41:22;;;;;;;10.70;9.30;;;19.40;29.30;;;;;;5058592;28;20653;-53
2020/12/17 03:43:51;;;;;;;11.33;10.17;;;19.40;28.80;;;;;;5076341;28;20158;-53
2020/12/17 03:46:19;;;;;;;9.30;8.20;;;19.40;28.80;;;;;;5076217;28;20165;-53
2020/12/17 03:48:47;;;;;;;9.55;8.65;;;19.40;28.80;;;;;;5076001;28;20194;-53
2020/12/17 03:51:13;;;;;;;9.18;8.20;;;19.40;28.70;;;;;;5058347;28;20178;-51
2020/12/17 03:53:39;;;;;;;9.27;8.37;;;19.40;28.70;;;;;;5075663;28;20163;-51
2020/12/17 03:56:04;;;;;;;9.43;8.50;;;19.40;28.70;;;;;;5076143;28;20162;-52
2020/12/17 03:58:30;;;;;;;9.80;8.80;;;19.40;28.80;;;;;;5076218;28;20162;-52
2020/12/17 04:00:55;;;;;;;10.27;9.20;;;19.40;28.80;;;;;;5076016;28;20169;-52
2020/12/17 04:03:21;;;;;;;9.60;8.50;;;19.40;28.80;;;;;;5076020;28;20552;-52
2020/12/17 04:05:50;;;;;;;10.40;9.27;;;19.40;28.80;;;;;;5075871;28;20610;-52
2020/12/17 04:08:15;;;;;;;9.93;8.93;;;19.40;28.80;;;;;;5057552;28;20258;-52
2020/12/17 04:10:41;;;;;;;10.67;8.80;;;19.40;28.80;;;;;;5075888;28;20241;-52
2020/12/17 04:13:07;;;;;;;10.20;9.00;;;19.40;28.80;;;;;;5075821;28;20224;-53
2020/12/17 04:15:32;;;;;;;9.90;8.30;;;19.40;28.80;;;;;;5075672;28;20222;-53
2020/12/17 04:17:58;;;;;;;9.73;8.73;;;19.40;28.80;;;;;;5075379;28;20169;-53
2020/12/17 04:20:23;;;;;;;9.87;8.87;;;19.40;28.80;;;;;;5075581;28;20165;-53
2020/12/17 04:22:49;;;;;;;8.93;7.93;;;19.40;28.80;;;;;;5075207;28;20159;-53
2020/12/17 04:25:15;;;;;;;8.80;7.73;;;19.40;29.30;;;;;;5075588;28;20548;-53
2020/12/17 04:27:40;;;;;;;9.63;8.50;;;19.40;28.80;;;;;;5057681;28;20155;-54
2020/12/17 04:30:06;;;;;;;10.60;9.37;;;19.40;28.80;;;;;;5075203;28;20237;-52
2020/12/17 04:32:32;;;;;;;10.97;9.10;;;19.40;28.80;;;;;;5075397;28;20159;-52
2020/12/17 04:34:58;;;;;;;9.33;8.40;;;19.40;28.80;;;;;;5075286;28;20238;-52
2020/12/17 04:37:23;;;;;;;10.33;9.03;;;19.40;28.80;;;;;;5074899;28;20204;-52
2020/12/17 04:39:49;;;;;;;9.50;8.00;;;19.40;28.80;;;;;;5075387;28;20594;-52
2020/12/17 04:42:15;;;;;;;9.33;7.73;;;19.40;28.80;;;;;;5074427;28;20530;-52
2020/12/17 04:44:43;;;;;;;8.80;8.00;;;19.40;28.80;;;;;;5075026;28;20155;-52
2020/12/17 04:47:11;;;;;;;9.55;8.65;;;19.40;29.30;;;;;;5075146;28;20223;-53
2020/12/17 04:49:50;;;;;;;10.10;8.35;;;19.40;28.80;;;;;;5074987;28;20625;-52
2020/12/17 04:52:16;;;;;;;9.02;8.15;;;19.30;28.70;;;;;;5074499;28;20288;-52
2020/12/17 04:54:42;;;;;;;9.98;9.02;;;19.40;28.80;;;;;;5075146;28;20166;-52
2020/12/17 04:57:13;;;;;;;9.37;7.30;;;19.40;28.80;;;;;;5074977;28;20155;-52
2020/12/17 04:59:43;;;;;;;9.13;8.32;;;19.40;28.80;;;;;;5074792;28;20154;-53
2020/12/17 05:02:09;;;;;;;8.15;7.35;;;19.40;28.80;;;;;;5074658;28;20189;-53
2020/12/17 05:04:40;;;;;;;9.93;8.90;;;19.40;28.80;;;;;;5074912;28;20166;-53
2020/12/17 05:07:08;;;;;;;9.10;8.20;;;19.40;28.80;;;;;;5074454;28;20173;-53
2020/12/17 05:09:35;;;;;;;10.15;8.85;;;19.40;28.80;;;;;;5090117;28;20732;-53
2020/12/17 05:12:02;;;;;;;9.90;8.73;;;19.40;28.70;;;;;;5074853;28;20154;-53
2020/12/17 05:14:28;;;;;;;8.95;8.10;;;19.40;28.80;;;;;;5074471;28;20159;-53
2020/12/17 05:16:55;;;;;;;9.05;8.25;;;19.50;28.90;;;;;;5056608;28;20214;-51
2020/12/17 05:19:22;;;;;;;9.48;8.40;;;19.40;28.70;;;;;;5074622;28;20161;-51
2020/12/17 05:21:55;;;;;;;9.00;8.10;;;19.50;28.80;;;;;;5074439;28;20151;-52
2020/12/17 05:24:22;;;;;;;9.48;8.13;;;19.50;28.80;;;;;;5074172;28;20163;-52
2020/12/17 05:26:55;;;;;;;8.10;7.28;;;19.50;28.80;;;;;;5074387;28;20170;-52
2020/12/17 05:29:21;;;;;;;8.52;7.72;;;19.50;28.80;;;;;;5074261;28;20208;-52
2020/12/17 05:31:47;;;;;;;9.90;8.40;;;19.50;28.90;;;;;;5074202;28;20296;-52
2020/12/17 05:34:14;;;;;;;9.25;8.25;;;19.50;28.80;;;;;;5073935;28;20385;-52
2020/12/17 05:36:41;;;;;;;8.65;7.85;;;19.50;28.70;;;;;;5074203;28;20158;-52
2020/12/17 05:39:15;;;;;;;8.60;7.70;;;19.50;28.70;;;;;;5073562;28;20184;-52
2020/12/17 05:41:42;;;;;;;9.10;8.20;;;19.50;28.70;;;;;;5056274;28;20162;-51
2020/12/17 05:44:35;;;;;;;9.25;8.38;;;19.50;28.70;;;;;;5073825;28;20200;-51
2020/12/17 05:47:00;;;;;;;8.60;7.80;;;19.50;29.30;;;;;;5070849;28;20713;-52
2020/12/17 05:49:28;;;;;;;7.70;6.63;;;19.50;28.70;;;;;;5074190;28;20320;-52
2020/12/17 05:52:15;;;;;;;8.30;7.40;;;19.50;28.70;;;;;;5073522;28;20602;-52
2020/12/17 05:54:58;;;;;;;8.35;7.10;;;19.50;28.70;;;;;;5072867;28;20234;-52
2020/12/17 05:57:24;;;;;;;8.55;7.72;;;19.50;28.70;;;;;;5073633;28;20146;-52
2020/12/17 05:59:59;;;;;;;8.43;7.63;;;19.50;28.70;;;;;;5073806;28;20163;-52
2020/12/17 06:02:33;;;;;;;9.07;7.47;;;19.50;28.70;;;;;;5073648;28;20238;-52
2020/12/17 06:05:08;;;;;;;8.32;7.53;;;19.50;28.70;;;;;;5073737;28;20154;-52
2020/12/17 06:07:52;;;;;;;8.50;7.50;;;19.50;28.70;;;;;;5073137;28;20151;-52
2020/12/17 06:10:26;;;;;;;7.95;7.10;;;19.50;28.70;;;;;;5072998;28;20189;-52
2020/12/17 06:12:54;;;;;;;9.02;8.18;;;19.50;28.70;;;;;;5073464;28;20237;-52
2020/12/17 06:15:24;;;;;;;8.85;7.97;;;19.50;28.70;;;;;;5073379;28;20221;-52
2020/12/17 06:17:55;;;;;;;8.60;7.80;;;19.50;29.20;;;;;;5073547;28;20159;-52
2020/12/17 06:20:22;;;;;;;8.57;7.70;;;19.50;28.70;;;;;;5073912;28;20163;-52
2020/12/17 06:22:52;;;;;;;9.32;8.27;;;19.50;28.70;;;;;;5072917;28;20162;-52
2020/12/17 06:25:18;;;;;;;9.20;8.13;;;19.50;28.70;;;;;;5088920;28;20611;-52
2020/12/17 06:27:47;;;;;;;7.75;6.95;;;19.50;28.70;;;;;;5073437;28;20158;-52
2020/12/17 06:30:17;;;;;;;9.30;8.35;;;19.50;28.70;;;;;;5073172;28;20196;-52
2020/12/17 06:32:43;;;;;;;8.27;7.47;;;19.50;28.70;;;;;;5073685;28;20151;-52
2020/12/17 06:35:41;;;;;;;8.77;7.95;;;19.50;28.70;;;;;;5073420;28;20151;-52
2020/12/17 06:38:10;;;;;;;8.00;7.30;;;19.50;28.70;;;;;;5066806;28;20186;-52
2020/12/17 06:40:36;;;;;;;7.82;7.10;;;19.50;28.70;;;;;;5055139;28;20232;-52
2020/12/17 06:43:03;;;;;;;7.72;6.93;;;19.50;29.20;;;;;;5073253;28;20162;-52
2020/12/17 06:45:34;;;;;;;8.20;7.40;;;19.50;28.60;;;;;;5055863;28;20250;-52
2020/12/17 06:48:22;;;;;;;7.38;6.68;;;19.50;28.60;;;;;;5073154;28;20514;-52
2020/12/17 06:50:47;;;;;;;7.50;6.78;;;19.50;28.60;;;;;;5073138;28;20154;-52
2020/12/17 06:53:18;;;;;;;9.20;7.70;;;19.50;28.60;;;;;;5054693;28;20245;-52
2020/12/17 06:55:50;;;;;;;7.90;7.18;;;19.50;28.60;;;;;;5073023;28;20173;-52
2020/12/17 06:58:23;;;;;;;8.75;7.85;;;19.50;28.60;;;;;;5088327;28;20170;-52
2020/12/17 07:00:53;;;;;;;7.65;6.93;;;19.50;28.60;;;;;;5072677;28;20166;-52
2020/12/17 07:03:42;;;;;;;8.43;7.53;;;19.50;28.60;;;;;;5072723;28;20159;-52
2020/12/17 07:06:11;;;;;;;8.25;7.55;;;19.50;28.60;;;;;;5089749;28;20163;-53
2020/12/17 07:08:37;;;;;;;7.07;6.47;;;19.50;28.60;;;;;;5075962;28;20186;-52
2020/12/17 07:11:03;;;;;;;9.13;7.63;;;19.50;28.60;;;;;;5076511;28;20178;-53
2020/12/17 07:13:39;;;;;;;8.40;6.70;;;19.50;28.60;;;;;;5058512;28;20722;-53
2020/12/17 07:16:17;;;;;;;7.53;6.80;;;19.50;28.60;;;;;;5076202;28;20271;-54
2020/12/17 07:18:43;;;;;;;9.35;6.30;;;19.50;28.60;;;;;;5063780;28;20178;-52
2020/12/17 07:21:09;;;;;;;6.57;5.97;;;19.10;23.90;;;;;;5065776;28;20510;-52
2020/12/17 07:23:36;;;;;;;5.50;4.90;;;19.10;24.10;;;;;;5074486;28;20163;-53
2020/12/17 07:26:09;;;;;;;6.30;5.57;;;18.90;24.40;;;;;;5075994;28;20747;-53
2020/12/17 07:28:35;;;;;;;4.80;4.35;;;;;;;;;;5057246;28;20186;-54
2020/12/17 07:31:01;;;;;;;4.40;4.00;;;18.20;22.00;;;;;;5075099;28;20625;-53
2020/12/17 07:33:36;;;;;;;8.77;4.00;;;18.20;22.60;;;;;;5075515;28;20196;-52
2020/12/17 07:36:03;;;;;;;4.95;4.55;;;18.00;22.40;;;;;;5075779;28;20150;-53
2020/12/17 07:38:29;;;;;;;4.13;3.80;;;17.60;21.90;;;;;;5056792;28;20194;-53
2020/12/17 07:40:54;;;;;;;5.50;4.17;;;17.50;22.50;;;;;;5074526;28;20190;-52
2020/12/17 07:43:20;;;;;;;4.77;4.37;;;17.30;22.40;;;;;;5075578;28;20463;-53
2020/12/17 07:45:56;;;;;;;4.90;4.07;;;17.20;22.30;;;;;;5075847;28;20628;-53
2020/12/17 07:48:33;;;;;;;4.03;3.63;;;17.00;22.20;;;;;;5074753;28;20151;-52
2020/12/17 07:51:12;;;;;;;3.78;3.47;;;17.00;22.60;;;;;;5074133;28;20159;-54
2020/12/17 07:53:38;;;;;;;5.30;3.63;;;16.90;23.40;;;;;;5074600;28;20162;-53
2020/12/17 07:56:06;;;;;;;4.28;3.88;;;17.10;24.10;;;;;;5075583;28;20186;-53
2020/12/17 07:58:32;;;;;;;4.55;3.30;;;17.20;24.60;;;;;;5073822;28;20173;-53
2020/12/17 08:00:58;;;;;;;3.53;3.23;;;17.40;24.60;;;;;;5003150;28;21456;-54
2020/12/17 08:03:24;;;;;;;4.10;2.80;;;17.60;24.70;;;;;;5013435;28;20778;-52
2020/12/17 08:05:52;;;;;;;2.95;2.75;;;17.70;24.60;;;;;;5040750;28;20162;-53
2020/12/17 08:08:19;;;;;;;2.40;2.20;;;17.90;24.70;;;;;;5046570;28;20177;-53
2020/12/17 08:10:46;;;;;;;2.80;2.60;;;18.10;24.80;;;;;;5032036;28;20253;-54
2020/12/17 08:13:12;;;;;;;3.65;3.08;;;18.20;24.80;;;;;;5029564;28;20429;-54
2020/12/17 08:15:38;;;;;;;2.75;2.55;;;18.40;24.80;;;;;;5043515;28;20229;-53
2020/12/17 08:18:05;;;;;;;3.30;2.50;;;18.50;24.80;;;;;;5040953;28;20167;-52
2020/12/17 08:20:32;;;;;;;3.20;2.90;;;18.60;24.80;;;;;;5038091;28;20209;-52
2020/12/17 08:22:58;;;;;;;3.35;3.05;;;18.70;25.30;;;;;;5040835;28;20277;-53
2020/12/17 08:25:25;;;;;;;6.37;2.83;;;18.80;24.90;;;;;;5044931;28;20261;-53
2020/12/17 08:27:51;;;;;;;4.65;2.22;;;18.90;25.10;;;;;;5045615;28;20391;-53
2020/12/17 08:30:19;;;;;;;3.80;2.50;;;19.00;25.40;;;;;;5038495;28;20219;-54
2020/12/17 08:32:54;;;;;;;2.70;2.50;;;19.10;25.40;;;;;;5032315;28;20169;-53
2020/12/17 08:35:22;;;;;;;2.80;2.55;;;19.10;25.20;;;;;;5046201;28;20169;-54
2020/12/17 08:37:52;;;;;;;2.97;2.42;;;19.20;25.50;;;;;;5046984;28;20163;-51
2020/12/17 08:40:26;;;;;;;4.85;2.50;;;19.20;25.50;;;;;;5044044;28;20170;-51
2020/12/17 08:42:55;;;;;;;2.38;2.15;;;;;;;;;;5037837;28;20190;-52
2020/12/17 08:45:24;;;;;;;3.78;2.72;;;19.30;25.00;;;;;;5022704;28;20600;-51
2020/12/17 08:47:50;;;;;;;3.75;2.45;;;19.40;25.60;;;;;;5045025;28;20174;-52
2020/12/17 08:50:17;;;;;;;3.60;2.85;;;19.40;25.50;;;;;;5041980;28;20735;-52
2020/12/17 08:52:43;;;;;;;3.05;2.60;;;19.40;25.50;;;;;;5031790;28;20693;-52
2020/12/17 08:55:10;;;;;;;3.10;2.43;;;19.50;25.60;;;;;;5047642;28;20205;-50
2020/12/17 08:57:37;;;;;;;2.53;2.33;;;;;;;;;;5024841;28;20785;-54
2020/12/17 09:00:14;;;;;;;2.50;2.30;;;19.50;25.20;;;;;;5041717;28;20174;-55
2020/12/17 09:02:41;;;;;;;4.45;2.50;;;19.60;25.70;;;;;;5015133;28;20524;-54
2020/12/17 09:05:14;;;;;;;2.67;2.47;;;19.60;25.60;;;;;;5045661;28;20200;-53
2020/12/17 09:07:46;;;;;;;3.50;2.65;;;19.60;25.60;;;;;;5043952;28;20193;-52
2020/12/17 09:10:16;;;;;;;2.80;2.60;;;19.70;25.70;;;;;;5044214;28;20216;-53
2020/12/17 09:12:43;;;;;;;4.53;3.00;;;19.70;25.80;;;;;;5028169;28;20178;-55
2020/12/17 09:15:14;;;;;;;2.80;2.55;;;19.80;25.90;;;;;;5043505;28;20197;-52
2020/12/17 09:17:40;;;;;;;3.20;2.53;;;19.80;25.80;;;;;;5045169;28;20233;-51
2020/12/17 09:20:23;;;;;;;3.20;2.13;;;19.80;25.80;;;;;;5043106;28;20187;-52
2020/12/17 09:22:49;;;;;;;3.50;2.38;;;19.80;25.70;;;;;;5034016;28;20170;-54
2020/12/17 09:25:15;;;;;;;6.40;3.20;;;19.90;25.70;;;;;;5041311;28;20663;-52
2020/12/17 09:27:45;;;;;;;4.93;2.65;;;19.90;25.60;;;;;;5042482;28;20178;-52
2020/12/17 09:30:19;;;;;;;5.30;2.92;;;19.90;25.60;;;;;;5041940;28;20213;-52
2020/12/17 09:32:56;;;;;;;8.75;3.92;;;19.90;25.60;;;;;;5034578;28;20251;-52
2020/12/17 09:35:24;;;;;;;6.47;3.28;;;19.90;25.70;;;;;;5026274;28;20660;-52
2020/12/17 09:38:12;;;;;;;14.60;3.20;;;19.90;25.70;;;;;;5023822;28;20174;-53
2020/12/17 09:40:44;;;;;;;10.82;4.32;;;19.90;25.70;;;;;;5027587;28;20687;-51
2020/12/17 09:43:15;;;;;;;6.28;2.78;;;20.00;25.80;;;;;;5026405;28;20196;-52
2020/12/17 09:45:47;;;;;;;6.55;3.28;;;20.00;26.00;;;;;;5026681;28;20218;-52
2020/12/17 09:48:27;;;;;;;3.40;2.60;;;20.00;26.00;;;;;;5044280;28;20166;-52
2020/12/17 09:51:00;;;;;;;4.82;3.20;;;20.00;26.00;;;;;;5031714;28;20221;-52
2020/12/17 09:53:26;;;;;;;5.90;2.80;;;20.00;26.00;;;;;;5039812;28;20166;-52
2020/12/17 09:55:52;;;;;;;8.25;3.05;;;20.00;26.00;;;;;;5037119;28;20656;-53
2020/12/17 09:58:19;;;;;;;8.70;3.00;;;20.00;26.00;;;;;;5039778;28;21298;-53
2020/12/17 10:00:45;;;;;;;9.10;2.72;;;20.00;26.00;;;;;;5029640;28;21684;-53
2020/12/17 10:03:11;;;;;;;6.35;3.22;;;20.00;26.00;;;;;;5043834;28;20555;-52
2020/12/17 10:05:38;;;;;;;3.25;2.35;;;20.00;26.20;;;;;;5043675;28;20176;-53
2020/12/17 10:08:05;;;;;;;4.22;3.33;;;20.00;26.30;;;;;;5039146;28;20256;-52
2020/12/17 10:10:34;;;;;;;7.68;2.83;;;20.00;26.40;;;;;;5035165;28;20208;-52
2020/12/17 10:13:07;;;;;;;10.75;3.65;;;20.10;26.50;;;;;;5037774;28;20170;-52
2020/12/17 10:15:33;;;;;;;5.45;2.80;;;20.10;26.60;;;;;;5032941;28;20212;-52
2020/12/17 10:17:59;;;;;;;4.05;3.33;;;20.10;31.90;;;;;;5039003;28;20186;-52
2020/12/17 10:20:25;;;;;;;4.30;2.77;;;20.10;26.60;;;;;;5026596;28;20185;-51
2020/12/17 10:22:51;;;;;;;9.68;2.97;;;20.10;26.50;;;;;;5029527;28;20472;-51
2020/12/17 10:25:21;;;;;;;3.92;1.90;;;20.20;26.60;;;;;;5044118;28;20200;-52
2020/12/17 10:27:50;;;;;;;3.20;2.75;;;20.20;26.50;;;;;;5039200;28;20597;-52
2020/12/17 10:30:17;;;;;;;2.70;2.50;;;;;;;;;;5041291;28;20197;-54
2020/12/17 10:32:42;;;;;;;4.15;2.55;;;20.20;26.00;;;;;;5031333;28;20226;-52
2020/12/17 10:35:09;;;;;;;4.93;2.13;;;20.20;26.50;;;;;;5020896;28;20170;-51
2020/12/17 10:37:35;;;;;;;3.17;2.38;;;20.30;26.50;;;;;;5038790;28;20421;-53
2020/12/17 10:40:02;;;;;;;4.23;2.93;;;20.30;26.50;;;;;;5035489;28;20663;-52
2020/12/17 10:42:28;;;;;;;2.20;1.92;;;20.30;26.50;;;;;;5012996;28;20431;-52
2020/12/17 10:44:54;;;;;;;5.53;2.70;;;20.30;26.50;;;;;;5043154;28;20190;-52
2020/12/17 10:47:20;;;;;;;3.60;2.50;;;20.30;26.50;;;;;;5026556;28;20417;-52
2020/12/17 10:49:46;;;;;;;5.60;2.20;;;20.30;26.50;;;;;;5036154;28;20555;-53
2020/12/17 10:52:13;;;;;;;3.60;2.85;;;20.30;26.60;;;;;;5010453;28;20467;-52
2020/12/17 10:54:39;;;;;;;4.10;2.95;;;20.30;26.60;;;;;;5046166;28;20257;-52
2020/12/17 10:57:05;;;;;;;3.80;2.53;;;20.30;26.60;;;;;;5028945;28;20176;-52
2020/12/17 10:59:31;;;;;;;3.08;2.47;;;20.30;26.60;;;;;;5044209;28;20399;-52
2020/12/17 11:01:58;;;;;;;3.00;2.30;;;20.30;26.60;;;;;;5006305;28;20186;-53
2020/12/17 11:04:25;;;;;;;4.78;2.40;;;20.40;26.50;;;;;;5040709;28;20494;-51
2020/12/17 11:06:56;;;;;;;5.45;2.17;;;20.40;26.30;;;;;;5045888;28;20175;-55
2020/12/17 11:09:23;;;;;;;3.10;2.80;;;;;;;;;;5040205;28;20190;-54
2020/12/17 11:11:52;;;;;;;2.60;2.40;;;20.50;25.70;;;;;;5028940;28;20221;-53
2020/12/17 11:14:19;;;;;;;4.15;2.30;;;20.50;26.10;;;;;;5044894;28;20970;-52
2020/12/17 11:16:47;;;;;;;6.15;2.70;;;20.50;26.10;;;;;;5040052;28;20266;-53
2020/12/17 11:19:13;;;;;;;5.68;2.88;;;20.50;26.20;;;;;;5044044;28;20198;-53
2020/12/17 11:21:39;;;;;;;2.83;2.23;;;20.50;26.20;;;;;;5031919;28;20497;-53
2020/12/17 11:24:05;;;;;;;2.90;2.50;;;20.50;26.00;;;;;;5043036;28;20190;-54
2020/12/17 11:26:31;;;;;;;2.73;2.13;;;20.50;26.10;;;;;;5027136;28;20265;-54
2020/12/17 11:28:58;;;;;;;5.27;3.50;;;20.50;26.00;;;;;;5042491;28;20986;-55
2020/12/17 11:31:25;;;;;;;3.20;2.42;;;20.50;26.80;;;;;;5028108;28;20179;-52
2020/12/17 11:33:52;;;;;;;5.50;2.75;;;20.50;27.10;;;;;;5046572;28;20261;-53
2020/12/17 11:36:21;;;;;;;4.70;2.40;;;20.50;27.50;;;;;;5022545;28;20178;-53
2020/12/17 11:38:48;;;;;;;3.90;2.15;;;20.50;27.50;;;;;;5022746;28;20208;-56
2020/12/17 11:41:13;;;;;;;4.80;2.75;;;20.50;27.50;;;;;;5015085;28;20618;-54
2020/12/17 11:43:39;;;;;;;3.70;2.77;;;20.50;27.50;;;;;;5022743;28;20224;-53
2020/12/17 11:46:05;;;;;;;4.60;2.60;;;20.50;27.50;;;;;;5038514;28;20202;-53
2020/12/17 11:48:31;;;;;;;7.13;2.97;;;20.50;27.40;;;;;;5045873;28;20997;-53
2020/12/17 11:50:57;;;;;;;2.67;2.47;;;20.50;27.40;;;;;;5029281;28;20281;-54
2020/12/17 11:53:23;;;;;;;7.82;2.25;;;20.60;27.40;;;;;;5041560;28;20637;-54
2020/12/17 11:55:48;;;;;;;3.70;2.57;;;20.60;27.40;;;;;;5040863;28;20218;-55
2020/12/17 11:58:14;;;;;;;2.30;2.10;;;20.60;27.40;;;;;;5033895;28;20947;-53
2020/12/17 12:00:40;;;;;;;2.80;2.10;;;20.60;27.40;;;;;;5032131;28;20778;-54
2020/12/17 12:03:06;;;;;;;3.13;2.40;;;20.60;27.20;;;;;;5024306;28;20892;-53
2020/12/17 12:05:32;;;;;;;3.00;2.20;;;20.70;27.40;;;;;;5041972;28;20486;-53
2020/12/17 12:07:58;;;;;;;6.10;2.50;;;20.70;27.30;;;;;;5042323;28;20182;-53
2020/12/17 12:10:24;;;;;;;3.43;2.00;;;20.70;27.30;;;;;;5034037;28;20198;-53
2020/12/17 12:12:51;;;;;;;5.68;2.30;;;20.70;27.30;;;;;;5029778;28;20424;-50
2020/12/17 12:15:16;;;;;;;5.03;2.53;;;20.70;27.30;;;;;;5044066;28;21552;-54
2020/12/17 12:17:42;;;;;;;2.47;2.23;;;20.70;27.40;;;;;;5040890;28;20226;-53
2020/12/17 12:20:08;;;;;;;4.63;2.30;;;20.70;27.40;;;;;;5025833;28;20444;-53
2020/12/17 12:22:35;;;;;;;4.70;2.50;;;20.70;27.20;;;;;;5009744;28;20221;-53
2020/12/17 12:25:02;;;;;;;3.08;1.90;;;20.70;27.10;;;;;;5022153;28;20198;-53
2020/12/17 12:27:28;;;;;;;5.40;2.95;;;20.70;27.00;;;;;;5035206;28;20204;-53
2020/12/17 12:29:53;;;;;;;3.50;2.30;;;20.70;27.10;;;;;;5042318;28;20194;-53
2020/12/17 12:32:19;;;;;;;2.50;2.30;;;20.70;27.30;;;;;;5014337;28;20207;-52
2020/12/17 12:34:45;;;;;;;3.70;2.70;;;20.70;27.40;;;;;;5039134;28;20170;-54
2020/12/17 12:37:10;;;;;;;3.77;2.40;;;20.70;27.40;;;;;;5043080;28;20608;-56
2020/12/17 12:39:36;;;;;;;4.33;2.90;;;20.70;27.40;;;;;;5038908;28;20587;-56
2020/12/17 12:42:04;;;;;;;3.73;2.20;;;20.80;27.40;;;;;;5026392;28;20200;-54
2020/12/17 12:44:30;;;;;;;4.75;2.97;;;20.80;27.50;;;;;;5027542;28;20407;-52
2020/12/17 12:46:56;;;;;;;4.90;2.50;;;20.80;27.50;;;;;;5044465;28;20573;-52